createdAt,value
2023-01-12T00:01:34.691Z,1.98
2023-01-12T00:04:23.704Z,2.50
2023-01-12T00:07:12.207Z,2.15
2023-01-12T00:09:58.994Z,2.28
2023-01-12T00:12:48.950Z,2.28
2023-01-12T00:16:02.062Z,2.03
2023-01-12T00:18:49.607Z,2.05
2023-01-12T00:21:51.777Z,2.08
2023-01-12T00:24:44.100Z,2.20
2023-01-12T00:27:30.988Z,2.10
2023-01-12T00:30:18.004Z,2.10
2023-01-12T00:33:04.830Z,2.00
2023-01-12T00:35:51.747Z,1.98
2023-01-12T00:38:38.679Z,2.20
2023-01-12T00:41:43.975Z,2.05
2023-01-12T00:44:49.858Z,1.92
2023-01-12T00:47:36.724Z,1.92
2023-01-12T00:50:25.878Z,2.00
2023-01-12T00:53:15.690Z,2.00
2023-01-12T00:56:12.053Z,2.00
2023-01-12T00:58:58.964Z,1.90
2023-01-12T01:01:45.825Z,2.10
2023-01-12T01:04:35.008Z,2.00
2023-01-12T01:07:21.969Z,2.10
2023-01-12T01:10:09.921Z,1.88
2023-01-12T01:12:56.775Z,1.80
2023-01-12T01:15:43.602Z,2.00
2023-01-12T01:18:31.582Z,2.00
2023-01-12T01:21:18.902Z,1.88
2023-01-12T01:24:14.990Z,1.80
2023-01-12T01:27:01.847Z,1.90
2023-01-12T01:29:48.686Z,1.85
2023-01-12T01:32:35.449Z,2.17
2023-01-12T01:35:22.261Z,1.90
2023-01-12T01:38:12.207Z,1.77
2023-01-12T01:40:59.177Z,1.85
2023-01-12T01:43:55.161Z,1.60
2023-01-12T01:46:50.615Z,1.85
2023-01-12T01:49:47.860Z,1.83
2023-01-12T01:52:40.086Z,1.90
2023-01-12T01:55:31.018Z,2.10
2023-01-12T01:58:22.237Z,2.03
2023-01-12T02:01:09.185Z,1.70
2023-01-12T02:03:56.331Z,1.90
2023-01-12T02:06:47.152Z,1.70
2023-01-12T02:09:33.934Z,1.70
2023-01-12T02:12:39.278Z,1.80
2023-01-12T02:15:47.448Z,1.95
2023-01-12T02:18:45.545Z,1.70
2023-01-12T02:22:00.728Z,1.65
2023-01-12T02:25:16.061Z,1.70
2023-01-12T02:28:27.569Z,1.60
2023-01-12T02:31:23.003Z,1.83
2023-01-12T02:34:39.405Z,1.60
2023-01-12T02:37:49.627Z,1.70
2023-01-12T02:40:59.409Z,1.70
2023-01-12T02:43:46.207Z,1.75
2023-01-12T02:46:36.240Z,1.92
2023-01-12T02:49:27.171Z,1.73
2023-01-12T02:52:16.117Z,1.80
2023-01-12T02:55:03.965Z,2.22
2023-01-12T02:57:51.590Z,1.55
2023-01-12T03:00:39.265Z,1.83
2023-01-12T03:03:26.497Z,2.20
2023-01-12T03:06:17.954Z,1.77
2023-01-12T03:09:04.758Z,1.70
2023-01-12T03:11:53.803Z,1.60
2023-01-12T03:14:44.488Z,1.45
2023-01-12T03:17:36.370Z,1.75
2023-01-12T03:20:29.641Z,1.50
2023-01-12T03:23:28.291Z,1.70
2023-01-12T03:26:23.048Z,1.63
2023-01-12T03:29:17.454Z,1.80
2023-01-12T03:32:04.749Z,1.60
2023-01-12T03:34:51.625Z,1.70
2023-01-12T03:37:50.365Z,2.53
2023-01-12T03:40:46.942Z,1.50
2023-01-12T03:43:39.531Z,1.52
2023-01-12T03:46:34.342Z,1.60
2023-01-12T03:49:26.617Z,1.60
2023-01-12T03:52:13.867Z,1.75
2023-01-12T03:55:02.040Z,1.67
2023-01-12T03:57:49.716Z,1.70
2023-01-12T04:00:36.571Z,1.65
2023-01-12T04:03:24.581Z,2.35
2023-01-12T04:06:11.411Z,1.80
2023-01-12T04:12:11.168Z,1.50
2023-01-12T04:14:58.967Z,1.60
2023-01-12T04:17:45.764Z,1.60
2023-01-12T04:20:33.100Z,1.60
2023-01-12T04:23:19.908Z,1.75
2023-01-12T04:26:06.670Z,1.85
2023-01-12T04:28:53.470Z,1.70
2023-01-12T04:31:40.403Z,1.80
2023-01-12T04:34:27.199Z,1.70
2023-01-12T04:37:14.215Z,1.80
2023-01-12T04:40:01.430Z,2.58
2023-01-12T04:43:01.781Z,1.80
2023-01-12T04:45:48.561Z,1.70
2023-01-12T04:48:35.652Z,1.70
2023-01-12T04:51:22.438Z,1.73
2023-01-12T04:54:10.578Z,1.70
2023-01-12T04:57:00.317Z,1.80
2023-01-12T04:59:47.087Z,1.67
2023-01-12T05:02:33.889Z,1.85
2023-01-12T05:05:20.671Z,2.03
2023-01-12T05:09:05.656Z,1.60
2023-01-12T05:11:52.481Z,1.77
2023-01-12T05:14:39.285Z,1.60
2023-01-12T05:17:26.788Z,1.80
2023-01-12T05:20:13.658Z,1.70
2023-01-12T05:23:00.442Z,1.92
2023-01-12T05:25:47.341Z,1.90
2023-01-12T05:28:34.310Z,2.22
2023-01-12T05:31:44.378Z,1.80
2023-01-12T05:34:31.339Z,1.85
2023-01-12T05:37:18.286Z,1.90
2023-01-12T05:40:05.614Z,1.90
2023-01-12T05:43:11.127Z,1.83
2023-01-12T05:46:02.321Z,1.63
2023-01-12T05:48:50.200Z,1.85
2023-01-12T05:51:37.079Z,1.67
2023-01-12T05:54:24.101Z,1.77
2023-01-12T05:57:10.870Z,1.88
2023-01-12T05:59:57.656Z,1.80
2023-01-12T06:02:44.482Z,1.80
2023-01-12T06:05:34.230Z,2.00
2023-01-12T06:08:21.183Z,2.05
2023-01-12T06:15:13.095Z,1.60
2023-01-12T06:17:59.872Z,1.98
2023-01-12T06:20:46.649Z,1.80
2023-01-12T06:23:35.477Z,1.80
2023-01-12T06:29:09.310Z,1.70
2023-01-12T06:31:58.877Z,1.90
2023-01-12T06:34:45.631Z,1.80
2023-01-12T06:37:32.404Z,1.70
2023-01-12T06:40:19.168Z,1.90
2023-01-12T06:43:05.986Z,1.90
2023-01-12T06:45:53.222Z,2.00
2023-01-12T06:48:40.120Z,2.30
2023-01-12T06:51:27.106Z,1.70
2023-01-12T06:54:13.880Z,1.80
2023-01-12T06:57:00.646Z,1.60
2023-01-12T06:59:47.446Z,1.80
2023-01-12T07:02:34.254Z,1.70
2023-01-12T07:05:21.019Z,1.80
2023-01-12T07:08:07.788Z,1.70
2023-01-12T07:10:54.670Z,1.70
2023-01-12T07:13:44.321Z,1.60
2023-01-12T07:16:31.143Z,1.98
2023-01-12T07:19:18.065Z,2.15
2023-01-12T07:22:04.861Z,1.58
2023-01-12T07:24:51.620Z,1.70
2023-01-12T07:27:38.427Z,1.50
2023-01-12T07:30:25.942Z,1.70
2023-01-12T07:33:13.927Z,1.70
2023-01-12T07:36:01.730Z,1.90
2023-01-12T07:38:48.542Z,1.85
2023-01-12T07:41:54.372Z,1.80
2023-01-12T07:44:41.963Z,1.60
2023-01-12T07:47:28.743Z,1.85
2023-01-12T07:50:15.823Z,2.10
2023-01-12T07:53:03.354Z,2.03
2023-01-12T07:55:50.127Z,1.55
2023-01-12T07:58:37.415Z,1.60
2023-01-12T08:01:24.383Z,1.58
2023-01-12T08:04:11.222Z,1.75
2023-01-12T08:07:07.236Z,1.60
2023-01-12T08:09:54.150Z,1.70
2023-01-12T08:12:47.552Z,1.60
2023-01-12T08:15:47.776Z,1.50
2023-01-12T08:18:49.998Z,1.60
2023-01-12T08:21:52.789Z,1.75
2023-01-12T08:24:44.652Z,1.58
2023-01-12T08:27:37.961Z,1.70
2023-01-12T08:30:25.912Z,1.50
2023-01-12T08:33:12.850Z,1.65
2023-01-12T08:35:59.605Z,1.67
2023-01-12T08:38:46.388Z,1.40
2023-01-12T08:41:33.263Z,1.50
2023-01-12T08:44:21.156Z,1.60
2023-01-12T08:47:19.619Z,1.50
2023-01-12T08:50:07.457Z,1.52
2023-01-12T08:52:54.249Z,2.03
2023-01-12T08:55:41.028Z,1.92
2023-01-12T08:58:27.945Z,1.58
2023-01-12T09:01:16.746Z,1.60
2023-01-12T09:04:04.887Z,1.90
2023-01-12T09:06:52.318Z,1.77
2023-01-12T09:09:39.188Z,1.73
2023-01-12T09:12:27.687Z,1.52
2023-01-12T09:15:17.743Z,1.75
2023-01-12T09:18:04.743Z,1.50
2023-01-12T09:20:51.771Z,1.55
2023-01-12T09:23:38.979Z,1.60
2023-01-12T09:26:31.907Z,2.03
2023-01-12T09:29:18.844Z,1.92
2023-01-12T09:32:05.720Z,1.67
2023-01-12T09:34:57.198Z,1.67
2023-01-12T09:37:44.962Z,1.60
2023-01-12T09:40:31.818Z,1.60
2023-01-12T09:43:37.547Z,1.55
2023-01-12T09:46:49.659Z,1.60
2023-01-12T09:49:41.148Z,1.70
2023-01-12T09:52:31.817Z,1.90
2023-01-12T09:55:21.258Z,1.80
2023-01-12T09:58:10.690Z,1.60
2023-01-12T10:00:58.726Z,1.58
2023-01-12T10:03:45.793Z,1.70
2023-01-12T10:06:33.161Z,1.63
2023-01-12T10:09:21.123Z,1.90
2023-01-12T10:12:29.253Z,1.70
2023-01-12T10:15:35.146Z,1.60
2023-01-12T10:18:31.889Z,1.70
2023-01-12T10:21:18.783Z,1.70
2023-01-12T10:24:11.852Z,1.70
2023-01-12T10:27:02.312Z,1.73
2023-01-12T10:29:49.086Z,1.70
2023-01-12T10:32:41.991Z,1.58
2023-01-12T10:35:28.903Z,1.73
2023-01-12T10:38:34.606Z,1.58
2023-01-12T10:41:23.159Z,1.60
2023-01-12T10:44:15.464Z,1.50
2023-01-12T10:47:09.929Z,1.65
2023-01-12T10:50:20.221Z,1.88
2023-01-12T10:53:14.071Z,1.42
2023-01-12T10:56:03.070Z,1.73
2023-01-12T10:59:02.163Z,1.50
2023-01-12T11:01:53.092Z,1.60
2023-01-12T11:04:51.601Z,1.80
2023-01-12T11:07:49.153Z,2.05
2023-01-12T11:10:37.334Z,1.40
2023-01-12T11:13:36.602Z,1.40
2023-01-12T11:19:21.652Z,1.50
2023-01-12T11:22:17.903Z,1.58
2023-01-12T11:25:12.142Z,1.70
2023-01-12T11:28:03.003Z,1.60
2023-01-12T11:31:04.404Z,1.45
2023-01-12T11:34:04.798Z,1.60
2023-01-12T11:37:02.439Z,1.52
2023-01-12T11:39:56.089Z,1.70
2023-01-12T11:43:02.128Z,1.50
2023-01-12T11:45:53.355Z,1.80
2023-01-12T11:49:08.050Z,1.50
2023-01-12T11:51:58.596Z,1.50
2023-01-12T11:54:45.492Z,1.63
2023-01-12T11:57:41.628Z,1.40
2023-01-12T12:00:37.329Z,1.73
2023-01-12T12:03:55.621Z,1.48
2023-01-12T12:06:59.714Z,1.50
2023-01-12T12:10:13.734Z,1.73
2023-01-12T12:13:12.235Z,1.42
2023-01-12T12:16:18.048Z,1.40
2023-01-12T12:19:15.771Z,1.70
2023-01-12T12:22:26.353Z,1.38
2023-01-12T12:25:32.549Z,1.60
2023-01-12T12:28:48.441Z,1.42
2023-01-12T12:32:08.583Z,1.70
2023-01-12T12:35:30.777Z,1.50
2023-01-12T12:38:38.144Z,1.40
2023-01-12T12:41:51.485Z,1.40
2023-01-12T12:45:06.752Z,1.52
2023-01-12T12:48:07.159Z,1.60
2023-01-12T12:51:07.019Z,1.52
2023-01-12T12:53:54.516Z,1.65
2023-01-12T12:56:41.829Z,1.70
2023-01-12T12:59:31.673Z,1.60
2023-01-12T13:02:54.398Z,1.40
2023-01-12T13:05:46.583Z,1.60
2023-01-12T13:08:34.887Z,1.50
2023-01-12T13:12:00.302Z,1.40
2023-01-12T13:15:18.881Z,1.33
2023-01-12T13:18:06.210Z,1.50
2023-01-12T13:20:55.827Z,1.40
2023-01-12T13:23:45.666Z,1.60
2023-01-12T13:26:35.329Z,1.40
2023-01-12T13:29:27.946Z,1.70
2023-01-12T13:32:41.800Z,1.60
2023-01-12T13:35:34.793Z,1.50
2023-01-12T13:38:38.948Z,1.48
2023-01-12T13:41:50.173Z,1.40
2023-01-12T13:44:40.114Z,1.30
2023-01-12T13:47:30.423Z,1.48
2023-01-12T13:50:20.211Z,1.42
2023-01-12T13:53:20.866Z,1.60
2023-01-12T13:56:19.077Z,1.42
2023-01-12T13:59:07.782Z,1.77
2023-01-12T14:01:55.619Z,1.35
2023-01-12T14:04:57.975Z,1.50
2023-01-12T14:07:52.937Z,1.30
2023-01-12T14:10:56.497Z,1.45
2023-01-12T14:14:30.596Z,1.70
2023-01-12T14:17:46.328Z,1.42
2023-01-12T14:20:47.898Z,1.75
2023-01-12T14:24:06.831Z,1.25
2023-01-12T14:42:21.975Z,1.42
2023-01-12T14:50:39.637Z,1.20
2023-01-12T14:54:52.660Z,1.23
2023-01-12T14:58:36.551Z,1.17
2023-01-12T15:08:47.857Z,1.25
2023-01-12T15:16:05.485Z,1.20
2023-01-12T15:26:25.085Z,1.13
2023-01-12T15:33:01.470Z,1.50
2023-01-12T15:36:14.557Z,1.40
2023-01-12T15:39:32.537Z,1.50
2023-01-12T15:43:29.967Z,1.30
2023-01-12T15:50:34.653Z,1.20
2023-01-12T15:53:41.573Z,1.30
2023-01-12T15:56:43.364Z,1.30
2023-01-12T16:04:25.288Z,1.20
2023-01-12T16:07:35.394Z,1.35
2023-01-12T16:10:30.884Z,1.35
2023-01-12T16:18:40.103Z,1.10
2023-01-12T16:22:30.990Z,1.30
2023-01-12T16:25:09.256Z,1.00
2023-01-12T16:28:01.711Z,1.30
2023-01-12T16:30:50.851Z,1.40
2023-01-12T16:34:30.776Z,1.25
2023-01-12T16:41:03.882Z,1.10
2023-01-12T16:44:13.617Z,1.30
2023-01-12T16:47:39.696Z,1.25
2023-01-12T16:57:05.007Z,1.10
2023-01-12T17:07:11.518Z,1.95
2023-01-12T17:10:04.333Z,1.20
2023-01-12T17:13:02.465Z,1.15
2023-01-12T17:15:53.449Z,1.30
2023-01-12T18:24:55.386Z,1.95
2023-01-12T19:32:34.878Z,1.50
2023-01-12T19:35:33.975Z,1.48
2023-01-12T19:38:51.535Z,1.30
2023-01-12T19:57:37.225Z,1.60
2023-01-12T20:20:11.478Z,1.60
2023-01-12T20:47:43.379Z,1.40
2023-01-12T20:51:21.241Z,1.50
2023-01-12T20:59:13.760Z,1.70
2023-01-12T21:04:49.782Z,1.55
2023-01-12T21:07:50.235Z,1.50
2023-01-12T21:11:34.364Z,1.40
2023-01-12T21:14:52.896Z,1.35
2023-01-12T21:18:13.775Z,1.30
2023-01-12T21:21:07.273Z,1.50
2023-01-12T21:30:44.751Z,1.40
2023-01-12T21:33:43.131Z,1.60
2023-01-12T21:36:42.605Z,1.52
2023-01-12T21:43:09.183Z,1.40
2023-01-12T21:46:10.914Z,1.40
2023-01-12T21:52:09.526Z,1.40
2023-01-12T22:05:58.385Z,1.40
2023-01-12T22:13:04.461Z,1.23
2023-01-12T22:17:34.648Z,1.40
2023-01-12T22:21:28.080Z,1.42
2023-01-12T22:28:53.685Z,0.98
2023-01-12T22:35:29.098Z,1.50
2023-01-12T22:41:48.627Z,1.40
2023-01-12T22:48:30.304Z,1.50
2023-01-12T22:52:01.243Z,1.30
2023-01-12T22:54:59.442Z,1.35
2023-01-12T22:58:22.468Z,1.20
2023-01-12T23:01:29.229Z,1.40
2023-01-12T23:04:22.719Z,1.35
2023-01-12T23:07:51.565Z,1.30
2023-01-12T23:10:54.497Z,1.30
2023-01-12T23:14:12.217Z,1.70
2023-01-12T23:17:18.227Z,1.40
2023-01-12T23:20:58.718Z,1.50
2023-01-12T23:24:15.690Z,1.30
2023-01-12T23:27:14.973Z,1.50
2023-01-12T23:30:12.499Z,1.40
2023-01-12T23:33:35.298Z,1.30
2023-01-12T23:36:27.000Z,1.30
2023-01-12T23:39:17.527Z,1.40
2023-01-12T23:42:17.260Z,1.40
2023-01-12T23:45:30.493Z,1.25
2023-01-12T23:51:52.029Z,1.50
2023-01-12T23:54:42.347Z,1.50
2023-01-12T23:57:35.660Z,1.30
